Flight Track Log - Related Links

Times and Time Zones

All times are in EST time to prevent confusion due to time zone crossing. See the EJA389 flight status page for this flight to view local times or setup timezone preferences in your user account.

Time Position Orientation Groundspeed Altitude Reporting Facility
EST Latitude Longitude Course Direction KTS MPH feet Rate Location/Type
Thu 10:08:52 AM 41.0833 -73.7333 270° West 166 191 2,000  Level New York TRACON
Thu 10:09:52 AM 41.0833 -73.7833 270° West 165 190 3,900 1,952 Climbing New York TRACON
Thu 10:10:58 AM 41.0667 -73.8667 255° West 202 232 6,100 1,550 Climbing New York TRACON
Thu 10:11:52 AM 41.0500 -73.9333 252° West 239 275 7,000 474 Climbing New York TRACON
Thu 10:12:52 AM 41.0000 -74.0000 225° Southwest 264 304 7,000 1,150 Level New York TRACON
Thu 10:13:52 AM 40.9333 -74.0333 201° Southwest 264 304 9,300 2,400 Climbing New York TRACON
Thu 10:14:00 AM 40.6085 -74.1203 270° West  Level Estimated
Thu 10:14:52 AM 40.8500 -74.0667 197° South 284 327 11,800  Level New York TRACON
Thu 10:15:52 AM 40.7667 -74.1000 197° South 353 406 12,000 100 Climbing New York TRACON
Thu 10:16:52 AM 40.6833 -74.1500 204° Southwest 351 404 12,000 1,050 Level New York TRACON
Thu 10:17:52 AM 40.5833 -74.1833 194° South 354 407 14,100 2,450 Climbing New York TRACON
Thu 10:18:52 AM 40.4833 -74.2000 187° South 372 428 16,900 1,176 Climbing New York TRACON
Thu 10:20:20 AM 40.3322 -74.2153 184° South 396 456 17,000 41 Climbing New York Center
Thu 10:21:20 AM 40.2464 -74.2244 185° South 365 420 17,000 50 Level New York Center
Thu 10:22:20 AM 40.1503 -74.2386 186° South 357 411 17,100 800 Climbing New York Center
Thu 10:23:20 AM 40.0414 -74.2522 185° South 351 404 18,600 2,316 Climbing New York Center
Thu 10:25:11 AM 39.8928 -74.3692 211° Southwest 353 406 23,700 1,884 Climbing Washington Center
Thu 10:26:12 AM 39.8186 -74.4650 225° Southwest 369 425 24,000 148 Climbing Washington Center
Thu 10:27:13 AM 39.7425 -74.5633 225° Southwest 375 432 24,000 694 Level Washington Center
Thu 10:28:13 AM 39.6681 -74.6561 224° Southwest 380 437 25,400 1,017 Climbing Washington Center
Thu 10:29:11 AM 39.5897 -74.7542 224° Southwest 380 437 26,000 305 Climbing Washington Center
Thu 10:30:11 AM 39.5133 -74.8492 224° Southwest 385 443 26,000  Level Washington Center
Thu 10:31:11 AM 39.4367 -74.9439 224° Southwest 385 443 26,000  Level Washington Center
Thu 10:32:11 AM 39.3581 -75.0414 224° Southwest 385 443 26,000 793 Level Washington Center
Thu 10:33:12 AM 39.2731 -75.1225 216° Southwest 391 450 27,600 1,884 Climbing Washington Center
Thu 10:34:12 AM 39.1689 -75.1686 199° South 391 450 29,800 1,950 Climbing Washington Center
Thu 10:35:12 AM 39.0628 -75.2119 198° South 396 456 31,500 1,091 Climbing Washington Center
Thu 10:36:13 AM 38.9525 -75.2581 198° South 406 467 32,000 454 Climbing Washington Center
Thu 10:37:11 AM 38.8378 -75.3092 199° South 419 482 32,400 966 Climbing Washington Center
Thu 10:38:11 AM 38.7233 -75.3603 199° South 432 497 33,900 1,488 Climbing Washington Center
Thu 10:39:12 AM 38.6108 -75.4003 196° South 432 497 35,400 1,033 Climbing Washington Center
Thu 10:40:13 AM 38.5003 -75.4511 200° South 432 497 36,000 298 Climbing Washington Center
Thu 10:41:13 AM 38.3900 -75.4964 198° South 427 491 36,000  Level Washington Center
Thu 10:42:13 AM 38.2858 -75.5653 207° Southwest 427 491 36,000 356 Level Washington Center
Thu 10:43:11 AM 38.1897 -75.6550 216° Southwest 427 491 36,700 857 Climbing Washington Center
Thu 10:44:12 AM 38.1000 -75.7394 217° Southwest 427 491 37,700 645 Climbing Washington Center
Thu 10:45:12 AM 38.0103 -75.8264 217° Southwest 414 476 38,000 151 Climbing Washington Center
Thu 10:46:11 AM 37.9183 -75.9128 217° Southwest 414 476 38,000  Level Washington Center
Thu 10:47:11 AM 37.8222 -76.0019 216° Southwest 419 482 38,000  Level Washington Center
Thu 10:48:11 AM 37.7300 -76.0906 217° Southwest 419 482 38,000  Level Washington Center
Thu 10:49:13 AM 37.6336 -76.1767 215° Southwest 419 482 38,000  Level Washington Center
Thu 10:50:13 AM 37.5331 -76.2544 212° Southwest 424 488 38,000  Level Washington Center
Thu 10:51:11 AM 37.4286 -76.3214 207° Southwest 424 488 38,000  Level Washington Center
Thu 10:52:12 AM 37.3217 -76.3883 206° Southwest 424 488 38,000  Level Washington Center
Thu 10:53:13 AM 37.2128 -76.4525 205° Southwest 429 494 38,000  Level Washington Center
Thu 10:54:11 AM 37.1058 -76.5189 206° Southwest 429 494 38,000  Level Washington Center
Thu 10:55:11 AM 36.9969 -76.5853 206° Southwest 429 494 38,000  Level Washington Center
Thu 10:56:12 AM 36.8900 -76.6514 206° Southwest 429 494 38,000  Level Washington Center
Thu 10:57:13 AM 36.7808 -76.7175 206° Southwest 429 494 38,000  Level Washington Center
Thu 10:58:11 AM 36.6739 -76.7883 208° Southwest 429 494 38,000  Level Washington Center
Thu 10:59:12 AM 36.5625 -76.8514 204° Southwest 429 494 38,000  Level Washington Center
Thu 11:00:12 AM 36.4533 -76.9192 207° Southwest 435 501 38,000  Level Washington Center
Thu 11:01:12 AM 36.3336 -76.9919 206° Southwest 435 501 38,000  Level Washington Center
Thu 11:02:13 AM 36.2244 -77.0544 205° Southwest 435 501 38,000  Level Washington Center
Thu 11:03:11 AM 36.1150 -77.1167 205° Southwest 435 501 38,000  Level Washington Center
Thu 11:04:12 AM 36.0142 -77.1814 207° Southwest 424 488 38,000  Level Washington Center
Thu 11:05:12 AM 35.9067 -77.2461 206° Southwest 424 488 38,000  Level Washington Center
Thu 11:06:13 AM 35.7975 -77.3078 205° Southwest 431 496 38,000  Level Washington Center
Thu 11:07:13 AM 35.6858 -77.3719 205° Southwest 431 496 38,000  Level Washington Center
Thu 11:08:11 AM 35.5764 -77.4383 206° Southwest 431 496 38,000  Level Washington Center
Thu 11:09:11 AM 35.4689 -77.4997 205° Southwest 431 496 38,000  Level Washington Center
Thu 11:10:12 AM 35.3636 -77.5711 209° Southwest 431 496 38,000  Level Washington Center
Thu 11:11:13 AM 35.2722 -77.6603 219° Southwest 431 496 38,000  Level Washington Center
Thu 11:12:11 AM 35.1831 -77.7522 220° Southwest 426 490 38,000  Level Washington Center
Thu 11:13:12 AM 35.0936 -77.8436 220° Southwest 426 490 38,000  Level Washington Center
Thu 11:14:12 AM 35.0150 -77.9250 220° Southwest 421 484 38,000  Level Washington Center
Thu 11:15:12 AM 34.9256 -78.0164 220° Southwest 421 484 38,000  Level Washington Center
Thu 11:16:13 AM 34.8381 -78.1047 220° Southwest 416 479 38,000  Level Washington Center
Thu 11:17:11 AM 34.7525 -78.2008 223° Southwest 416 479 38,000  Level Washington Center
Thu 11:18:11 AM 34.6650 -78.2914 220° Southwest 416 479 38,000  Level Washington Center
Thu 11:19:12 AM 34.5756 -78.3792 219° Southwest 416 479 38,000  Level Washington Center
Thu 11:20:22 AM 34.4750 -78.4850 221° Southwest 421 484 38,000  Level Jacksonville Center
Thu 11:21:22 AM 34.3864 -78.5750 220° Southwest 421 484 38,000  Level Jacksonville Center
Thu 11:22:22 AM 34.2994 -78.6597 219° Southwest 414 476 38,000  Level Jacksonville Center
Thu 11:23:22 AM 34.2106 -78.7494 220° Southwest 414 476 38,000  Level Jacksonville Center
Thu 11:24:22 AM 34.1258 -78.8339 220° Southwest 414 476 38,000  Level Jacksonville Center
Thu 11:25:22 AM 34.0367 -78.9206 219° Southwest 414 476 38,000  Level Jacksonville Center
Thu 11:26:22 AM 33.9497 -79.0047 219° Southwest 414 476 38,000  Level Jacksonville Center
Thu 11:27:22 AM 33.8628 -79.0936 220° Southwest 414 476 38,000  Level Jacksonville Center
Thu 11:28:22 AM 33.7733 -79.1800 219° Southwest 414 476 38,000  Level Jacksonville Center
Thu 11:29:22 AM 33.6822 -79.2686 219° Southwest 408 470 38,000  Level Jacksonville Center
Thu 11:30:22 AM 33.5947 -79.3544 219° Southwest 408 470 38,000  Level Jacksonville Center
Thu 11:31:22 AM 33.5075 -79.4428 220° Southwest 408 470 38,000  Level Jacksonville Center
Thu 11:32:22 AM 33.4222 -79.5281 220° Southwest 413 475 38,000  Level Jacksonville Center
Thu 11:33:22 AM 33.3347 -79.6108 218° Southwest 413 475 38,000  Level Jacksonville Center
Thu 11:34:22 AM 33.2492 -79.6936 219° Southwest 413 475 38,000  Level Jacksonville Center
Thu 11:35:22 AM 33.1614 -79.7786 219° Southwest 413 475 38,000  Level Jacksonville Center
Thu 11:36:22 AM 33.0758 -79.8608 219° Southwest 413 475 38,000 -700 Level Jacksonville Center
Thu 11:37:22 AM 32.9881 -79.9456 219° Southwest 413 475 36,600 -1,900 Descending Jacksonville Center
Thu 11:38:22 AM 32.9003 -80.0300 219° Southwest 413 475 34,200 -2,350 Descending Jacksonville Center
Thu 11:39:22 AM 32.8039 -80.1072 214° Southwest 418 481 31,900 -2,300 Descending Jacksonville Center
Thu 11:40:22 AM 32.7094 -80.1842 214° Southwest 418 481 29,600 -1,950 Descending Jacksonville Center
Thu 11:41:22 AM 32.6233 -80.2533 214° Southwest 418 481 28,000 -800 Descending Jacksonville Center
Thu 11:42:22 AM 32.5269 -80.3300 214° Southwest 423 487 28,000  Level Jacksonville Center
Thu 11:43:22 AM 32.4281 -80.4067 213° Southwest 423 487 28,000  Level Jacksonville Center
Thu 11:44:22 AM 32.3294 -80.4831 213° Southwest 428 493 28,000 -400 Level Jacksonville Center
Thu 11:45:22 AM 32.2328 -80.5594 214° Southwest 428 493 27,200 -1,500 Descending Jacksonville Center
Thu 11:46:22 AM 32.1319 -80.6406 214° Southwest 428 493 25,000 -2,067 Descending Jacksonville Center
Thu 11:47:21 AM 32.0453 -80.7064 213° Southwest 414 476 23,100 -2,050 Descending Jacksonville Center
Thu 11:48:22 AM 31.9444 -80.7847 213° Southwest 409 471 20,900 -1,537 Descending Jacksonville Center
Thu 11:49:22 AM 31.8517 -80.8578 214° Southwest 409 471 20,000 -1,200 Descending Jacksonville Center
Thu 11:50:22 AM 31.7711 -80.9206 214° Southwest 403 464 18,500 -1,700 Descending Jacksonville Center
Thu 11:51:22 AM 31.6742 -80.9933 213° Southwest 389 448 16,600 -1,950 Descending Jacksonville Center
Thu 11:52:22 AM 31.5856 -81.0636 214° Southwest 389 448 14,600 -1,950 Descending Jacksonville Center
Thu 11:53:22 AM 31.5111 -81.1208 213° Southwest 377 434 12,700 -2,050 Descending Jacksonville Center
Thu 11:54:22 AM 31.4203 -81.1883 212° Southwest 362 417 10,500 -2,100 Descending Jacksonville Center
Thu 11:55:22 AM 31.3456 -81.2214 201° Southwest 312 359 8,500 -2,000 Descending Jacksonville Center
Thu 11:56:22 AM 31.2683 -81.2300 185° South 283 326 6,500 -1,950 Descending Jacksonville Center
Thu 11:57:22 AM 31.1994 -81.2361 184° South 277 319 4,600 -1,900 Descending Jacksonville Center

Login

Don't have an account? Register now (free) for customized features, flight alerts, and more!